Αρχική σελίδα
METAR-TAF:

METAR-TAF

Αεροδρόμια :

Brewster Field

Holdrege, Νεμπράσκα, Ηνωμένες Πολιτείες Αμερικής

γεωγραφικό πλάτος: 40-27N, γεωγραφικό μήκος: 099-20W, υψόμετρο: 704 μ

Παρών καιρός

Η αναφορά έγινε 23 λεπτά πριν, στις 16:15 UTC
Άνεμος 7 kt από Β/BΔ
Θερμοκρασία -14°C
Υγρασία 78%
Πίεση 1031 hPa
Ορατότητα: 16.1 χλμ
Διάσπαρτα νέφη σε ύψος 7500 πόδια
Αρκετά νέφη σε ύψος 10000 πόδια

METAR: KHDE 181615Z AUTO 34007KT 10SM SCT075 BKN100 M14/M17 A3044 RMK AO2 T11411173

Χρόνος: 10:38 (16:38 UTC)


TAF: λείπει

Μετεωρολογικές αναφορές και προγνώσεις για περισσότερα από 4000 αεροδρόμια (δελτία METAR και TAF).

Οι διαθέσιμοι σταθμοί απεικονίζονται στο χάρτη με κίτρινες και κόκκινες κουκκίδες.

Μετακινήστε το ποντίκι πάνω από τις κουκκίδες για να δείτε το όνομα του σταθμού.

Στη συνέχεια, κάντε κλικ για να δείτε τις μετεωρολογικές αναφορές και τις προγνώσεις καιρού.

Για να αλλάξετε το χάρτη: κάντε κλικ στα πράσινα κουμπιά με τον μαύρο σταυρό για να ζουμάρετε, στο πράσινο κουμπί με την παύλα για να αφαιρέσετε το ζουμ ή στα πράσινα βέλη για να αντιπαραβάλλετε χάρτες.


METAR-TAF: